Latest Weather Observations for Coolangatta

IDN60801

Issued at 7:02 am EST Thursday 5 May 2016 (issued every 30 minutes, with the page automatically refreshed every 10 minutes)

About weather observations | Map of weather stations | Latest weather observations for NSW | Other Formats
Station Details ID: 040717 Name: COOLANGATTA Lat: -28.17 Lon: 153.51 Height: 4.0 m
Data from the previous 72 hours. | See also: Recent months at Coolangatta
Date/Time
EST
Temp
°C
App
Temp
°C
Dew
Point
Rel
Hum
%
Delta-T
°C
Wind Press
QNH
hPa
Press
MSL
hPa
Rain
since 9 am
mm
Dir
 
Spd
km/h
Gust
km/h
Spd
kts
Gust
kts
05/07:00am 16.5 17.0 15.5 94 0.6 S 7 7 4 4 1019.7 1019.7 -
05/06:30am 15.5 15.9 14.7 95 0.5 S 6 7 3 4 1019.4 1019.4 -
05/06:00am 15.5 15.7 14.7 95 0.5 S 7 9 4 5 1019.1 1019.1 -
05/05:30am 15.5 15.7 14.7 95 0.5 S 7 9 4 5 1018.8 1018.8 -
05/05:00am 15.3 15.5 14.7 96 0.3 S 7 9 4 5 1018.4 1018.4 -
05/04:30am 15.1 15.3 14.3 95 0.5 S 6 7 3 4 1018.2 1018.2 -
05/04:00am 15.2 15.4 14.2 94 0.6 S 6 9 3 5 1017.9 1017.9 -
05/03:30am 15.5 16.2 14.5 94 0.6 SSW 4 6 2 3 1017.8 1017.8 -
05/03:00am 16.2 17.6 15.4 95 0.5 SSW 2 6 1 3 1017.7 1017.7 0.0
05/02:30am 16.2 16.6 15.4 95 0.5 SSW 7 7 4 4 1017.7 1017.7 -
05/02:00am 15.6 15.8 14.3 92 0.7 SSW 6 7 3 4 1017.7 1017.7 -
05/01:30am 16.4 17.4 15.4 94 0.6 SSW 4 7 2 4 1017.9 1017.9 -
05/01:00am 16.1 17.7 14.8 92 0.7 CALM 0 0 0 0 1018.0 1018.0 -
05/12:30am 16.0 16.3 14.5 91 0.9 S 6 7 3 4 1018.2 1018.2 -
05/12:00am 16.7 17.6 15.1 90 0.9 S 4 7 2 4 1018.3 1018.3 -
 
Date/Time
EST
Temp
°C
App
Temp
°C
Dew
Point
Rel
Hum
%
Delta-T
°C
Wind Press
QNH
hPa
Press
MSL
hPa
Rain
since 9 am
mm
Dir
 
Spd
km/h
Gust
km/h
Spd
kts
Gust
kts
04/11:30pm 17.0 18.3 15.2 89 1.0 SW 2 7 1 4 1018.5 1018.5 -
04/11:00pm 17.5 17.9 15.3 87 1.3 SW 7 11 4 6 1018.4 1018.4 -
04/10:30pm 17.6 17.3 15.4 87 1.3 SW 11 13 6 7 1018.5 1018.5 -
04/10:00pm 17.3 18.7 15.5 89 1.1 SW 2 6 1 3 1018.6 1018.6 -
04/09:30pm 17.7 18.0 15.9 89 1.1 SW 9 11 5 6 1018.6 1018.6 -
04/09:00pm 17.6 18.2 15.9 90 1.0 SW 7 11 4 6 1018.5 1018.5 0.0
04/08:30pm 17.8 18.0 15.8 88 1.2 SW 9 11 5 6 1018.4 1018.4 -
04/08:00pm 18.0 18.4 16.2 89 1.1 WSW 9 13 5 7 1018.1 1018.1 -
04/07:30pm 18.8 18.5 16.4 86 1.4 WSW 13 15 7 8 1017.8 1017.8 -
04/07:00pm 18.6 19.0 16.4 87 1.3 WSW 9 11 5 6 1017.6 1017.6 -
04/06:30pm 19.7 20.6 16.5 82 1.9 SW 7 11 4 6 1017.3 1017.3 -
04/06:00pm 20.6 21.4 16.4 77 2.5 SSW 7 11 4 6 1016.9 1016.9 -
04/05:30pm 21.1 21.5 16.3 74 2.9 S 9 15 5 8 1016.5 1016.5 -
04/05:00pm 21.9 21.6 16.4 71 3.3 SSE 13 20 7 11 1016.1 1016.1 -
04/04:30pm 22.9 21.3 16.0 65 4.2 SSE 19 28 10 15 1015.6 1015.6 -
04/04:00pm 23.8 22.5 15.8 61 4.8 SSE 17 24 9 13 1015.4 1015.4 -
04/03:30pm 24.3 21.7 16.0 60 5.0 SE 24 28 13 15 1015.0 1015.0 -
04/03:00pm 24.6 21.7 15.0 55 5.7 SE 24 32 13 17 1014.6 1014.6 -
04/02:30pm 25.2 22.3 14.0 49 6.6 SE 22 30 12 16 1014.5 1014.5 -
04/02:00pm 25.5 22.5 13.7 48 6.9 SE 22 30 12 16 1014.3 1014.3 -
04/01:30pm 26.0 23.5 14.1 47 7.1 SE 20 28 11 15 1014.3 1014.3 -
04/01:00pm 25.3 23.5 13.2 47 7.0 SSE 15 24 8 13 1014.5 1014.5 -
04/12:30pm 25.8 24.1 13.6 47 7.2 SSE 15 24 8 13 1014.6 1014.6 -
04/12:00pm 25.7 24.1 12.9 45 7.4 SSE 13 20 7 11 1015.0 1015.0 -
04/11:30am 25.1 23.5 12.7 46 7.2 SSW 13 20 7 11 1015.5 1015.5 -
04/11:00am - - - - - - - - - - - - -
04/10:30am 24.8 23.0 12.1 45 7.3 SSW 13 20 7 11 1016.3 1016.3 0.0
04/10:00am 24.3 22.8 11.9 45 7.0 SW 11 17 6 9 1016.6 1016.6 0.0
04/09:30am 23.6 21.5 11.0 45 7.0 SSW 13 22 7 12 1016.8 1016.8 0.0
04/09:00am 22.9 22.6 12.8 53 5.8 SW 6 9 3 5 1016.6 1016.6 0.0
04/08:30am 21.8 21.3 12.6 56 5.2 SSW 7 11 4 6 1016.3 1016.3 0.0
04/08:00am 19.6 19.6 14.2 71 3.1 SSW 7 11 4 6 1016.2 1016.2 0.0
04/07:30am 17.6 17.5 15.0 85 1.5 S 9 11 5 6 1015.9 1015.9 0.0
04/07:00am 15.0 14.2 12.9 87 1.2 SSW 9 13 5 7 1015.2 1015.2 0.0
04/06:30am 15.2 13.7 13.2 88 1.1 WSW 13 15 7 8 1014.6 1014.6 0.0
04/06:00am 14.9 14.3 13.4 91 0.8 SSW 9 11 5 6 1014.4 1014.4 0.0
04/05:30am 14.9 14.6 13.4 91 0.8 W 7 9 4 5 1014.0 1014.0 0.0
04/05:00am 15.3 15.4 14.0 92 0.7 WSW 6 9 3 5 1013.4 1013.4 0.0
04/04:30am 15.5 16.5 14.4 93 0.6 S 2 7 1 4 1012.8 1012.8 0.0
04/04:00am 15.8 16.8 14.3 91 0.9 SW 2 6 1 3 1012.8 1012.8 0.0
04/03:30am 16.0 16.7 14.5 91 0.9 SW 4 7 2 4 1012.5 1012.5 0.0
04/03:00am 16.1 16.3 14.6 91 0.9 WSW 7 11 4 6 1012.5 1012.5 0.0
04/02:30am 16.0 16.5 14.9 93 0.6 WSW 6 9 3 5 1012.3 1012.3 0.0
04/02:00am 16.2 16.6 15.2 94 0.6 SSW 7 9 4 5 1012.2 1012.2 0.0
04/01:30am 16.6 18.1 15.6 94 0.6 SW 2 6 1 3 1012.3 1012.3 0.0
04/01:00am 17.1 18.4 16.1 94 0.6 SSW 4 9 2 5 1012.4 1012.4 0.0
04/12:30am 17.3 17.7 16.3 94 0.6 WSW 9 11 5 6 1012.6 1012.6 0.0
04/12:00am 17.5 18.3 16.4 93 0.7 W 7 9 4 5 1012.7 1012.7 0.0
 
Date/Time
EST
Temp
°C
App
Temp
°C
Dew
Point
Rel
Hum
%
Delta-T
°C
Wind Press
QNH
hPa
Press
MSL
hPa
Rain
since 9 am
mm
Dir
 
Spd
km/h
Gust
km/h
Spd
kts
Gust
kts
03/11:30pm 18.3 19.2 17.5 95 0.5 SW 9 11 5 6 1012.6 1012.6 0.0
03/11:00pm 18.1 19.8 17.1 94 0.6 SE 4 9 2 5 1012.8 1012.8 0.0
03/10:30pm 18.6 19.9 17.6 94 0.6 W 7 7 4 4 1013.0 1013.0 0.0
03/10:00pm 18.8 20.1 17.5 92 0.8 S 7 11 4 6 1013.1 1013.1 0.0
03/09:30pm 19.3 20.8 18.1 93 0.7 SSW 7 9 4 5 1013.1 1013.1 0.0
03/09:00pm 19.8 21.2 18.6 93 0.7 SW 9 11 5 6 1013.1 1013.1 0.0
03/08:30pm 20.4 21.1 18.9 91 0.9 WSW 13 13 7 7 1013.1 1013.1 0.0
03/08:00pm 20.6 20.8 18.5 88 1.3 WSW 15 17 8 9 1013.0 1013.0 0.0
03/07:30pm 20.3 21.6 18.4 89 1.2 SW 9 13 5 7 1012.4 1012.4 0.0
03/07:00pm 20.5 21.7 18.3 87 1.4 W 9 11 5 6 1012.1 1012.1 0.0
03/06:30pm 23.7 24.9 20.0 80 2.4 NE 13 15 7 8 1011.7 1011.7 0.0
03/06:00pm 23.8 25.2 19.5 77 2.8 NE 11 15 6 8 1011.3 1011.3 0.0
03/05:30pm 23.8 25.1 18.4 72 3.4 ENE 9 13 5 7 1010.8 1010.8 0.0
03/05:00pm 24.3 24.3 17.1 64 4.5 NE 13 17 7 9 1010.5 1010.5 0.0
03/04:30pm 25.0 25.0 17.2 62 4.8 ENE 13 17 7 9 1010.3 1010.3 0.0
03/04:00pm 25.1 24.5 17.6 63 4.7 NE 17 19 9 10 1010.1 1010.1 0.0
03/03:30pm 25.2 25.3 19.1 69 3.9 NE 17 22 9 12 1010.0 1010.0 0.0
03/03:00pm 26.1 26.4 19.7 68 4.1 NE 17 20 9 11 1009.9 1009.9 0.0
03/02:30pm 25.8 25.6 19.4 67 4.1 NNE 19 22 10 12 1009.8 1009.8 0.0
03/02:00pm 25.9 26.4 19.3 67 4.2 NNE 15 19 8 10 1010.0 1010.0 0.0
03/01:30pm 25.9 25.7 19.3 67 4.2 N 19 22 10 12 1010.4 1010.4 0.0
03/01:00pm 25.5 26.1 19.4 69 3.9 N 15 17 8 9 1010.6 1010.6 0.0
03/12:30pm 26.0 26.2 19.4 67 4.3 N 17 22 9 12 1011.0 1011.0 0.0
03/12:00pm 25.5 25.4 18.7 66 4.3 NNE 17 20 9 11 1011.5 1011.5 0.0
03/11:30am 25.5 25.3 19.4 69 3.9 N 19 20 10 11 1012.0 1012.0 0.0
03/11:00am 25.9 26.9 19.5 68 4.1 NNE 13 19 7 10 1012.3 1012.3 0.0
03/10:30am 25.5 27.7 19.2 68 4.0 NW 6 11 3 6 1012.9 1012.9 0.0
03/10:00am 25.1 26.9 18.8 68 4.0 NW 7 13 4 7 1013.2 1013.2 0.0
03/09:30am 24.3 25.3 18.7 71 3.6 WNW 11 15 6 8 1013.5 1013.5 0.0
03/09:00am 23.6 24.0 19.1 76 2.9 NNW 15 22 8 12 1013.8 1013.8 5.4
03/08:30am 22.6 23.3 18.8 79 2.4 NW 13 19 7 10 1013.9 1013.9 5.4
03/08:00am 21.8 22.9 18.8 83 1.9 NNW 11 15 6 8 1013.9 1013.9 5.2
03/07:30am 20.4 21.7 18.5 89 1.2 NNW 9 13 5 7 1013.7 1013.7 5.2
03/07:00am 18.9 21.8 18.2 96 0.4 CALM 0 0 0 0 1013.7 1013.7 5.2
03/06:30am 18.1 20.4 17.6 97 0.3 WSW 2 6 1 3 1013.8 1013.8 5.2
03/06:00am 18.2 19.7 17.7 97 0.3 WNW 6 7 3 4 1013.6 1013.6 5.2
03/05:30am 18.1 20.7 17.6 97 0.3 CALM 0 0 0 0 1013.3 1013.3 5.2
03/05:00am 17.9 19.3 17.3 96 0.4 S 6 11 3 6 1013.1 1013.1 5.2
03/04:30am 17.9 19.6 17.1 95 0.5 SSW 4 7 2 4 1012.9 1012.9 5.2
03/04:00am 18.4 19.9 17.6 95 0.5 SW 6 9 3 5 1012.8 1012.8 5.2
03/03:30am 18.4 20.6 17.4 94 0.6 WNW 2 7 1 4 1012.7 1012.7 5.2
03/03:00am 18.5 19.5 17.7 95 0.5 WSW 9 15 5 8 1013.4 1013.4 5.2
03/02:30am 18.5 19.8 17.5 94 0.6 SE 7 13 4 7 1012.8 1012.8 5.2
03/02:00am 18.6 19.4 17.4 93 0.7 SW 9 15 5 8 1013.4 1013.4 5.0
03/01:30am 18.7 20.5 17.4 92 0.8 WNW 4 9 2 5 1013.6 1013.6 5.0
03/01:16am 18.8 19.6 17.3 91 0.9 W 9 13 5 7 1014.3 1014.3 4.8
03/01:00am 19.0 19.5 17.5 91 0.9 SW 11 17 6 9 1014.6 1014.6 4.6
03/12:56am 19.1 19.3 17.6 91 0.9 WSW 13 17 7 9 1014.7 1014.7 4.2
03/12:30am 19.8 19.2 17.6 87 1.3 SW 17 26 9 14 1014.9 1014.9 2.2
03/12:00am 19.8 20.9 17.9 89 1.2 SW 9 13 5 7 1014.4 1014.4 2.0
 
Date/Time
EST
Temp
°C
App
Temp
°C
Dew
Point
Rel
Hum
%
Delta-T
°C
Wind Press
QNH
hPa
Press
MSL
hPa
Rain
since 9 am
mm
Dir
 
Spd
km/h
Gust
km/h
Spd
kts
Gust
kts
02/11:30pm 19.8 21.3 18.1 90 1.1 S 7 11 4 6 1014.3 1014.3 2.0
02/11:00pm 20.3 21.8 18.8 91 0.9 SSW 9 13 5 7 1015.4 1015.4 2.0
02/10:30pm 20.8 21.8 19.5 92 0.8 SW 13 19 7 10 1015.8 1015.8 1.6
02/10:00pm 21.2 22.6 20.4 95 0.5 S 13 15 7 8 1015.6 1015.6 1.6
02/09:30pm 21.5 23.4 20.5 94 0.6 S 11 15 6 8 1016.0 1016.0 1.0
02/09:00pm 21.8 24.1 20.6 93 0.8 SW 9 11 5 6 1016.2 1016.2 0.6
02/08:30pm 22.0 24.3 20.6 92 0.9 SSW 9 11 5 6 1016.3 1016.3 0.0
02/08:00pm 21.9 24.5 20.5 92 0.9 SW 7 9 4 5 1015.7 1015.7 0.0
02/07:30pm 22.0 23.9 20.5 91 1.0 SW 11 13 6 7 1015.9 1015.9 0.0
02/07:00pm 22.2 25.9 20.7 91 1.0 WSW 2 7 1 4 1015.7 1015.7 0.0
02/06:30pm 22.3 25.3 20.8 91 1.0 WSW 6 7 3 4 1015.5 1015.5 0.0
02/06:00pm 22.4 25.6 20.5 89 1.2 SSW 4 7 2 4 1015.1 1015.1 0.0
02/05:30pm 22.6 26.3 19.9 85 1.7 CALM 0 0 0 0 1014.9 1014.9 0.0
02/05:00pm 22.9 25.3 19.7 82 2.0 SE 6 7 3 4 1014.4 1014.4 0.0
02/04:30pm 23.5 25.4 19.8 80 2.4 SE 9 11 5 6 1013.9 1013.9 0.0
02/04:00pm 23.7 25.7 20.0 80 2.4 SE 9 15 5 8 1013.8 1013.8 0.0
02/03:30pm 24.0 25.4 19.5 76 2.9 ESE 11 15 6 8 1013.5 1013.5 0.0
02/03:00pm 25.0 25.7 19.6 72 3.5 ESE 15 20 8 11 1013.2 1013.2 0.0
02/02:30pm 25.7 26.5 19.1 67 4.2 ESE 13 19 7 10 1013.5 1013.5 0.0
02/02:00pm 26.0 27.1 19.6 68 4.1 SE 13 19 7 10 1013.8 1013.8 0.0
02/01:30pm 25.4 25.6 18.6 66 4.3 SE 15 20 8 11 1014.2 1014.2 0.0
02/01:00pm 25.6 26.4 19.9 70 3.7 SSE 15 20 8 11 1014.5 1014.5 0.0
02/12:30pm 24.6 24.4 19.4 73 3.3 ESE 19 22 10 12 1014.8 1014.8 0.0
02/12:00pm 24.9 25.2 19.5 72 3.5 ESE 17 26 9 14 1015.4 1015.4 0.0
02/11:30am 24.8 25.3 20.1 75 3.0 ESE 17 20 9 11 1015.9 1015.9 0.0
02/11:00am 24.5 25.2 19.6 74 3.1 SE 15 20 8 11 1016.4 1016.4 0.0
02/10:30am 24.5 25.5 20.2 77 2.8 SSE 15 19 8 10 1016.8 1016.8 0.0
02/10:00am 24.1 25.4 20.2 79 2.5 SSE 13 15 7 8 1017.1 1017.1 0.0
02/09:30am 24.0 25.5 20.5 81 2.3 SSE 13 15 7 8 1017.4 1017.4 0.0
02/09:00am 23.3 25.2 20.6 85 1.8 SSE 11 13 6 7 1017.2 1017.2 4.4
02/08:30am 23.0 25.6 20.5 86 1.6 SSE 7 11 4 6 1017.1 1017.1 4.4
02/08:00am 21.9 24.7 20.4 91 1.0 SW 6 11 3 6 1017.0 1017.0 4.4
02/07:30am 20.9 24.1 20.4 97 0.3 SW 4 7 2 4 1016.9 1016.9 4.4

Other Formats:

Comma delimited format used in spreadsheet applications
http://www.bom.gov.au/fwo/IDN60801/IDN60801.94592.axf

JavaScript Object Notation format (JSON) in row-major order
http://www.bom.gov.au/fwo/IDN60801/IDN60801.94592.json